createdAt,value
2023-04-10T00:01:36.141Z,90.00
2023-04-10T00:06:36.016Z,91.24
2023-04-10T00:11:35.939Z,91.17
2023-04-10T00:16:35.896Z,91.28
2023-04-10T00:21:35.805Z,92.42
2023-04-10T00:26:35.740Z,92.87
2023-04-10T00:31:35.735Z,92.91
2023-04-10T00:36:35.610Z,92.81
2023-04-10T00:41:35.548Z,93.33
2023-04-10T00:46:35.527Z,93.27
2023-04-10T00:51:35.421Z,93.68
2023-04-10T00:56:35.350Z,93.89
2023-04-10T01:01:35.353Z,93.41
2023-04-10T01:06:35.244Z,93.52
2023-04-10T01:11:35.163Z,93.73
2023-04-10T01:16:35.117Z,94.66
2023-04-10T01:21:35.030Z,94.45
2023-04-10T01:26:34.961Z,94.29
2023-04-10T01:31:34.922Z,93.98
2023-04-10T01:36:34.834Z,95.01
2023-04-10T01:41:34.776Z,95.01
2023-04-10T01:46:34.773Z,94.91
2023-04-10T01:51:34.654Z,95.26
2023-04-10T01:56:34.602Z,95.57
2023-04-10T02:01:34.668Z,95.62
2023-04-10T02:06:34.471Z,95.72
2023-04-10T02:11:34.394Z,95.72
2023-04-10T02:16:34.362Z,95.31
2023-04-10T02:21:34.252Z,95.36
2023-04-10T02:26:34.187Z,95.77
2023-04-10T02:31:34.162Z,96.33
2023-04-10T02:36:34.057Z,97.16
2023-04-10T02:41:33.989Z,97.33
2023-04-10T02:46:33.962Z,97.37
2023-04-10T02:51:33.847Z,97.89
2023-04-10T02:56:33.787Z,97.85
2023-04-10T03:01:33.836Z,97.74
2023-04-10T03:06:33.666Z,97.85
2023-04-10T03:11:33.593Z,97.90
2023-04-10T03:16:33.657Z,97.59
2023-04-10T03:21:33.466Z,97.24
2023-04-10T03:26:33.395Z,96.57
2023-04-10T03:31:33.401Z,95.28
2023-04-10T03:36:33.269Z,93.73
2023-04-10T03:41:33.194Z,93.98
2023-04-10T03:46:33.184Z,94.70
2023-04-10T03:51:33.066Z,94.81
2023-04-10T03:56:33.000Z,95.32
2023-04-10T04:01:32.959Z,95.47
2023-04-10T04:06:32.870Z,96.30
2023-04-10T04:11:32.802Z,96.03
2023-04-10T04:16:32.806Z,97.22
2023-04-10T04:21:32.681Z,97.80
2023-04-10T04:26:32.606Z,98.32
2023-04-10T04:31:32.877Z,98.38
2023-04-10T04:36:32.465Z,97.86
2023-04-10T04:41:32.772Z,97.19
2023-04-10T04:46:32.408Z,96.67
2023-04-10T04:51:32.275Z,96.37
2023-04-10T04:56:32.211Z,94.13
2023-04-10T05:01:32.164Z,89.56
2023-04-10T05:06:32.090Z,87.35
2023-04-10T05:11:32.010Z,86.39
2023-04-10T05:16:31.938Z,83.55
2023-04-10T05:21:31.884Z,82.11
2023-04-10T05:26:31.815Z,83.53
2023-04-10T05:31:31.849Z,82.28
2023-04-10T05:36:31.679Z,76.07
2023-04-10T05:41:31.619Z,70.95
2023-04-10T05:46:31.615Z,67.32
2023-04-10T05:51:31.485Z,63.19
2023-04-10T05:56:31.414Z,59.84
2023-04-10T06:01:31.378Z,58.22
2023-04-10T06:06:31.276Z,55.52
2023-04-10T06:11:31.232Z,54.64
2023-04-10T06:16:31.247Z,56.99
2023-04-10T06:21:31.079Z,57.78
2023-04-10T06:26:31.013Z,54.97
2023-04-10T06:31:31.036Z,55.47
2023-04-10T06:36:30.881Z,54.00
2023-04-10T06:41:30.821Z,54.66
2023-04-10T06:46:30.792Z,53.65
2023-04-10T06:51:30.771Z,54.16
2023-04-10T06:56:30.613Z,53.72
2023-04-10T07:01:30.557Z,52.87
2023-04-10T07:06:30.524Z,52.14
2023-04-10T07:11:30.441Z,50.90
2023-04-10T07:16:30.466Z,50.78
2023-04-10T07:21:30.294Z,50.68
2023-04-10T07:26:30.248Z,51.73
2023-04-10T07:31:30.282Z,51.31
2023-04-10T07:36:30.108Z,49.65
2023-04-10T07:41:30.040Z,48.82
2023-04-10T07:46:29.975Z,48.79
2023-04-10T07:51:29.902Z,48.75
2023-04-10T07:56:29.850Z,47.52
2023-04-10T08:01:29.786Z,46.47
2023-04-10T08:06:29.710Z,46.73
2023-04-10T08:11:29.642Z,46.30
2023-04-10T08:16:29.592Z,45.50
2023-04-10T08:21:29.511Z,45.84
2023-04-10T08:26:29.444Z,44.95
2023-04-10T08:31:29.517Z,46.80
2023-04-10T08:36:29.366Z,47.47
2023-04-10T08:41:29.247Z,48.30
2023-04-10T08:46:29.264Z,47.32
2023-04-10T08:51:29.119Z,49.85
2023-04-10T08:56:29.056Z,50.31
2023-04-10T09:01:29.048Z,50.85
2023-04-10T09:06:28.924Z,55.21
2023-04-10T09:11:28.858Z,54.41
2023-04-10T09:16:28.869Z,52.72
2023-04-10T09:21:28.720Z,51.61
2023-04-10T09:26:28.657Z,53.34
2023-04-10T09:31:28.626Z,53.22
2023-04-10T09:36:28.565Z,52.01
2023-04-10T09:41:28.493Z,50.07
2023-04-10T09:46:28.478Z,50.30
2023-04-10T09:51:28.321Z,49.79
2023-04-10T09:56:28.263Z,52.04
2023-04-10T10:01:28.184Z,53.88
2023-04-10T10:06:28.110Z,52.04
2023-04-10T10:11:28.056Z,48.25
2023-04-10T10:16:28.051Z,47.22
2023-04-10T10:21:27.907Z,48.21
2023-04-10T10:26:27.849Z,51.36
2023-04-10T10:31:27.800Z,50.45
2023-04-10T10:36:27.728Z,49.47
2023-04-10T10:41:27.643Z,51.71
2023-04-10T10:46:27.580Z,51.18
2023-04-10T10:51:27.511Z,52.22
2023-04-10T10:56:27.448Z,49.30
2023-04-10T11:01:27.417Z,47.62
2023-04-10T11:06:27.314Z,47.50
2023-04-10T11:11:27.249Z,47.39
2023-04-10T11:16:27.245Z,47.59
2023-04-10T11:21:27.109Z,49.77
2023-04-10T11:26:27.067Z,49.52
2023-04-10T11:31:26.999Z,48.37
2023-04-10T11:36:26.954Z,48.11
2023-04-10T11:41:26.843Z,49.93
2023-04-10T11:46:26.897Z,47.16
2023-04-10T11:51:26.711Z,47.86
2023-04-10T11:56:26.637Z,46.30
2023-04-10T12:01:26.588Z,49.95
2023-04-10T12:06:26.531Z,46.91
2023-04-10T12:11:26.434Z,46.95
2023-04-10T12:16:26.369Z,48.01
2023-04-10T12:21:26.318Z,45.07
2023-04-10T12:26:26.231Z,44.85
2023-04-10T12:31:26.203Z,44.27
2023-04-10T12:36:26.116Z,45.37
2023-04-10T12:41:26.047Z,43.36
2023-04-10T12:46:26.080Z,43.56
2023-04-10T12:51:25.911Z,42.54
2023-04-10T12:56:25.846Z,40.62
2023-04-10T13:01:25.783Z,41.15
2023-04-10T13:06:25.709Z,39.74
2023-04-10T13:11:25.635Z,41.51
2023-04-10T13:16:25.623Z,37.51
2023-04-10T13:21:25.491Z,42.11
2023-04-10T13:26:25.567Z,40.23
2023-04-10T13:31:25.396Z,39.27
2023-04-10T13:36:25.378Z,36.94
2023-04-10T13:41:25.223Z,35.98
2023-04-10T13:46:25.220Z,37.99
2023-04-10T13:51:25.100Z,37.48
2023-04-10T13:56:25.055Z,39.72
2023-04-10T14:01:25.026Z,40.26
2023-04-10T14:06:24.940Z,39.45
2023-04-10T14:11:24.817Z,40.99
2023-04-10T14:16:24.776Z,38.53
2023-04-10T14:21:24.718Z,39.90
2023-04-10T14:26:24.625Z,40.91
2023-04-10T14:31:24.566Z,41.87
2023-04-10T14:36:24.499Z,45.70
2023-04-10T14:41:24.430Z,40.26
2023-04-10T14:46:24.449Z,38.60
2023-04-10T14:51:24.292Z,38.29
2023-04-10T14:56:24.231Z,37.49
2023-04-10T15:01:24.217Z,39.41
2023-04-10T15:06:24.109Z,41.19
2023-04-10T15:11:24.029Z,40.66
2023-04-10T15:16:24.036Z,39.45
2023-04-10T15:21:23.938Z,41.53
2023-04-10T15:26:23.830Z,40.44
2023-04-10T15:31:23.882Z,42.25
2023-04-10T15:36:23.699Z,41.18
2023-04-10T15:41:23.628Z,42.96
2023-04-10T15:46:23.621Z,42.72
2023-04-10T15:51:23.505Z,42.54
2023-04-10T15:56:23.434Z,42.03
2023-04-10T16:01:23.496Z,42.44
2023-04-10T16:06:23.301Z,42.54
2023-04-10T16:11:23.221Z,41.61
2023-04-10T16:16:23.221Z,42.55
2023-04-10T16:21:23.173Z,42.72
2023-04-10T16:26:23.047Z,43.34
2023-04-10T16:31:23.018Z,44.74
2023-04-10T16:36:22.924Z,44.23
2023-04-10T16:41:22.862Z,42.72
2023-04-10T16:46:22.809Z,42.64
2023-04-10T16:51:22.695Z,43.55
2023-04-10T16:56:22.640Z,44.43
2023-04-10T17:01:22.644Z,44.54
2023-04-10T17:06:22.523Z,45.34
2023-04-10T17:11:22.457Z,44.78
2023-04-10T17:16:22.401Z,44.80
2023-04-10T17:21:22.290Z,46.52
2023-04-10T17:26:22.224Z,47.55
2023-04-10T17:31:22.200Z,46.16
2023-04-10T17:36:22.136Z,46.08
2023-04-10T17:41:22.025Z,46.91
2023-04-10T17:46:21.975Z,47.24
2023-04-10T17:51:21.894Z,48.68
2023-04-10T17:56:21.819Z,48.68
2023-04-10T18:01:21.858Z,48.19
2023-04-10T18:06:21.724Z,49.46
2023-04-10T18:11:21.632Z,50.17
2023-04-10T18:16:21.574Z,50.58
2023-04-10T18:21:21.491Z,50.40
2023-04-10T18:26:21.435Z,52.25
2023-04-10T18:31:21.436Z,51.87
2023-04-10T18:36:21.285Z,52.30
2023-04-10T18:41:21.222Z,53.85
2023-04-10T18:46:21.195Z,53.78
2023-04-10T18:51:21.089Z,55.33
2023-04-10T18:56:21.046Z,57.09
2023-04-10T19:01:21.031Z,58.14
2023-04-10T19:06:20.894Z,58.44
2023-04-10T19:11:20.835Z,59.05
2023-04-10T19:16:20.910Z,59.18
2023-04-10T19:21:20.683Z,59.59
2023-04-10T19:26:20.619Z,59.89
2023-04-10T19:31:20.603Z,60.07
2023-04-10T19:36:20.631Z,59.56
2023-04-10T19:41:20.413Z,59.97
2023-04-10T19:46:20.428Z,59.43
2023-04-10T19:51:20.298Z,59.97
2023-04-10T19:56:20.209Z,59.87
2023-04-10T20:01:20.152Z,60.10
2023-04-10T20:06:20.578Z,60.21
2023-04-10T20:11:20.004Z,60.71
2023-04-10T20:16:19.995Z,60.51
2023-04-10T20:21:19.882Z,60.61
2023-04-10T20:26:19.815Z,60.94
2023-04-10T20:31:19.759Z,61.25
2023-04-10T20:36:19.726Z,61.90
2023-04-10T20:41:19.599Z,61.66
2023-04-10T20:46:19.569Z,61.46
2023-04-10T20:51:19.475Z,61.35
2023-04-10T20:56:21.129Z,60.85
2023-04-10T21:01:19.380Z,61.69
2023-04-10T21:06:20.250Z,61.38
2023-04-10T21:11:19.187Z,61.28
2023-04-10T21:16:19.179Z,61.58
2023-04-10T21:21:19.061Z,61.38
2023-04-10T21:26:18.998Z,62.10
2023-04-10T21:31:18.958Z,61.49
2023-04-10T21:36:18.883Z,61.69
2023-04-10T21:41:18.784Z,61.99
2023-04-10T21:46:18.741Z,61.58
2023-04-10T21:51:18.644Z,60.77
2023-04-10T21:56:18.577Z,60.87
2023-04-10T22:01:18.507Z,61.18
2023-04-10T22:06:18.436Z,60.13
2023-04-10T22:11:18.366Z,59.72
2023-04-10T22:16:18.293Z,60.41
2023-04-10T22:21:18.254Z,60.30
2023-04-10T22:26:18.182Z,59.49
2023-04-10T22:31:18.122Z,59.92
2023-04-10T22:36:18.025Z,60.36
2023-04-10T22:41:17.948Z,60.46
2023-04-10T22:46:17.932Z,60.74
2023-04-10T22:51:17.829Z,59.82
2023-04-10T22:56:17.761Z,59.39
2023-04-10T23:01:17.762Z,59.80
2023-04-10T23:06:17.614Z,59.18
2023-04-10T23:11:17.546Z,58.78
2023-04-10T23:16:18.317Z,59.08
2023-04-10T23:21:17.416Z,59.28
2023-04-10T23:26:17.357Z,59.59
2023-04-10T23:31:17.306Z,58.67
2023-04-10T23:36:17.228Z,58.78
2023-04-10T23:41:17.146Z,58.67
2023-04-10T23:46:17.106Z,58.64
2023-04-10T23:51:17.003Z,57.83
2023-04-10T23:56:16.933Z,58.06
